sensor_id;sensor_type;location;lat;lon;timestamp;P1;durP1;ratioP1;P2;durP2;ratioP2
35795;SDS011;21916;52.428;13.302;2023-12-20T00:01:32;9.68;;;4.57;;
35795;SDS011;21916;52.428;13.302;2023-12-20T00:03:58;7.40;;;4.55;;
35795;SDS011;21916;52.428;13.302;2023-12-20T00:06:24;7.05;;;4.43;;
35795;SDS011;21916;52.428;13.302;2023-12-20T00:08:49;6.90;;;4.20;;
35795;SDS011;21916;52.428;13.302;2023-12-20T00:11:15;9.57;;;4.75;;
35795;SDS011;21916;52.428;13.302;2023-12-20T00:13:41;7.38;;;4.30;;
35795;SDS011;21916;52.428;13.302;2023-12-20T00:16:06;7.43;;;4.40;;
35795;SDS011;21916;52.428;13.302;2023-12-20T00:18:32;6.47;;;3.75;;
35795;SDS011;21916;52.428;13.302;2023-12-20T00:20:58;7.50;;;4.22;;
35795;SDS011;21916;52.428;13.302;2023-12-20T00:23:23;6.55;;;4.35;;
35795;SDS011;21916;52.428;13.302;2023-12-20T00:25:49;7.65;;;4.60;;
35795;SDS011;21916;52.428;13.302;2023-12-20T00:28:15;6.05;;;4.05;;
35795;SDS011;21916;52.428;13.302;2023-12-20T00:30:40;5.53;;;3.58;;
35795;SDS011;21916;52.428;13.302;2023-12-20T00:33:06;7.40;;;4.43;;
35795;SDS011;21916;52.428;13.302;2023-12-20T00:35:32;5.70;;;3.70;;
35795;SDS011;21916;52.428;13.302;2023-12-20T00:37:58;6.15;;;4.25;;
35795;SDS011;21916;52.428;13.302;2023-12-20T00:40:24;5.60;;;3.90;;
35795;SDS011;21916;52.428;13.302;2023-12-20T00:42:49;5.40;;;3.72;;
35795;SDS011;21916;52.428;13.302;2023-12-20T00:45:15;5.35;;;3.80;;
35795;SDS011;21916;52.428;13.302;2023-12-20T00:47:41;6.60;;;3.92;;
35795;SDS011;21916;52.428;13.302;2023-12-20T00:50:06;6.28;;;3.80;;
35795;SDS011;21916;52.428;13.302;2023-12-20T00:52:32;4.85;;;3.67;;
35795;SDS011;21916;52.428;13.302;2023-12-20T00:54:58;5.70;;;3.42;;
35795;SDS011;21916;52.428;13.302;2023-12-20T00:57:24;5.82;;;3.65;;
35795;SDS011;21916;52.428;13.302;2023-12-20T00:59:50;4.75;;;3.25;;
35795;SDS011;21916;52.428;13.302;2023-12-20T01:02:16;5.93;;;3.33;;
35795;SDS011;21916;52.428;13.302;2023-12-20T01:04:41;5.88;;;3.58;;
35795;SDS011;21916;52.428;13.302;2023-12-20T01:07:07;6.22;;;3.28;;
35795;SDS011;21916;52.428;13.302;2023-12-20T01:09:33;5.45;;;3.33;;
35795;SDS011;21916;52.428;13.302;2023-12-20T01:11:58;4.63;;;2.70;;
35795;SDS011;21916;52.428;13.302;2023-12-20T01:14:24;5.05;;;3.45;;
35795;SDS011;21916;52.428;13.302;2023-12-20T01:16:50;5.00;;;3.17;;
35795;SDS011;21916;52.428;13.302;2023-12-20T01:19:15;5.70;;;3.58;;
35795;SDS011;21916;52.428;13.302;2023-12-20T01:21:41;5.78;;;3.00;;
35795;SDS011;21916;52.428;13.302;2023-12-20T01:24:07;5.65;;;3.55;;
35795;SDS011;21916;52.428;13.302;2023-12-20T01:26:32;5.75;;;3.20;;
35795;SDS011;21916;52.428;13.302;2023-12-20T01:28:58;4.50;;;3.05;;
35795;SDS011;21916;52.428;13.302;2023-12-20T01:31:24;6.13;;;3.45;;
35795;SDS011;21916;52.428;13.302;2023-12-20T01:33:50;4.43;;;2.83;;
35795;SDS011;21916;52.428;13.302;2023-12-20T01:36:15;6.28;;;3.25;;
35795;SDS011;21916;52.428;13.302;2023-12-20T01:38:41;3.65;;;2.50;;
35795;SDS011;21916;52.428;13.302;2023-12-20T01:41:07;4.60;;;2.90;;
35795;SDS011;21916;52.428;13.302;2023-12-20T01:43:32;4.53;;;3.03;;
35795;SDS011;21916;52.428;13.302;2023-12-20T01:45:58;4.35;;;2.83;;
35795;SDS011;21916;52.428;13.302;2023-12-20T01:48:25;4.00;;;2.67;;
35795;SDS011;21916;52.428;13.302;2023-12-20T01:50:52;4.60;;;3.03;;
35795;SDS011;21916;52.428;13.302;2023-12-20T01:53:20;5.75;;;3.65;;
35795;SDS011;21916;52.428;13.302;2023-12-20T01:55:49;6.28;;;3.83;;
35795;SDS011;21916;52.428;13.302;2023-12-20T01:58:17;6.82;;;3.20;;
35795;SDS011;21916;52.428;13.302;2023-12-20T02:00:44;5.15;;;3.28;;
35795;SDS011;21916;52.428;13.302;2023-12-20T02:03:10;5.57;;;3.45;;
35795;SDS011;21916;52.428;13.302;2023-12-20T02:05:36;6.43;;;3.47;;
35795;SDS011;21916;52.428;13.302;2023-12-20T02:08:03;5.60;;;4.22;;
35795;SDS011;21916;52.428;13.302;2023-12-20T02:10:30;5.90;;;3.47;;
35795;SDS011;21916;52.428;13.302;2023-12-20T02:12:56;6.60;;;4.32;;
35795;SDS011;21916;52.428;13.302;2023-12-20T02:18:25;6.63;;;3.80;;
35795;SDS011;21916;52.428;13.302;2023-12-20T02:20:51;5.22;;;3.85;;
35795;SDS011;21916;52.428;13.302;2023-12-20T02:23:17;6.60;;;3.97;;
35795;SDS011;21916;52.428;13.302;2023-12-20T02:25:42;8.32;;;4.72;;
35795;SDS011;21916;52.428;13.302;2023-12-20T02:28:08;8.18;;;5.13;;
35795;SDS011;21916;52.428;13.302;2023-12-20T02:30:34;7.40;;;4.50;;
35795;SDS011;21916;52.428;13.302;2023-12-20T02:33:00;5.50;;;3.50;;
35795;SDS011;21916;52.428;13.302;2023-12-20T02:35:26;8.52;;;4.80;;
35795;SDS011;21916;52.428;13.302;2023-12-20T02:37:52;8.82;;;5.35;;
35795;SDS011;21916;52.428;13.302;2023-12-20T02:40:17;11.45;;;5.45;;
35795;SDS011;21916;52.428;13.302;2023-12-20T02:42:43;9.65;;;5.68;;
35795;SDS011;21916;52.428;13.302;2023-12-20T02:45:09;11.00;;;6.22;;
35795;SDS011;21916;52.428;13.302;2023-12-20T02:47:34;12.13;;;6.30;;
35795;SDS011;21916;52.428;13.302;2023-12-20T02:50:00;10.35;;;6.97;;
35795;SDS011;21916;52.428;13.302;2023-12-20T02:52:27;10.63;;;6.28;;
35795;SDS011;21916;52.428;13.302;2023-12-20T02:54:54;10.00;;;5.93;;
35795;SDS011;21916;52.428;13.302;2023-12-20T02:57:20;13.65;;;7.28;;
35795;SDS011;21916;52.428;13.302;2023-12-20T02:59:45;17.13;;;8.27;;
35795;SDS011;21916;52.428;13.302;2023-12-20T03:02:11;11.45;;;6.57;;
35795;SDS011;21916;52.428;13.302;2023-12-20T03:04:37;9.77;;;5.70;;
35795;SDS011;21916;52.428;13.302;2023-12-20T03:07:02;12.18;;;5.88;;
35795;SDS011;21916;52.428;13.302;2023-12-20T03:09:28;11.80;;;6.78;;
35795;SDS011;21916;52.428;13.302;2023-12-20T03:11:53;13.05;;;7.55;;
35795;SDS011;21916;52.428;13.302;2023-12-20T03:14:19;14.65;;;8.68;;
35795;SDS011;21916;52.428;13.302;2023-12-20T03:16:51;12.93;;;6.65;;
35795;SDS011;21916;52.428;13.302;2023-12-20T03:19:17;15.15;;;7.50;;
35795;SDS011;21916;52.428;13.302;2023-12-20T03:21:44;9.48;;;5.97;;
35795;SDS011;21916;52.428;13.302;2023-12-20T03:24:10;13.88;;;6.97;;
35795;SDS011;21916;52.428;13.302;2023-12-20T03:26:36;13.25;;;6.85;;
35795;SDS011;21916;52.428;13.302;2023-12-20T03:29:01;16.70;;;7.63;;
35795;SDS011;21916;52.428;13.302;2023-12-20T03:31:27;13.38;;;7.13;;
35795;SDS011;21916;52.428;13.302;2023-12-20T03:33:52;11.90;;;6.70;;
35795;SDS011;21916;52.428;13.302;2023-12-20T03:36:19;16.15;;;7.15;;
35795;SDS011;21916;52.428;13.302;2023-12-20T03:38:45;13.35;;;6.97;;
35795;SDS011;21916;52.428;13.302;2023-12-20T03:41:11;16.15;;;7.05;;
35795;SDS011;21916;52.428;13.302;2023-12-20T03:43:36;12.25;;;6.72;;
35795;SDS011;21916;52.428;13.302;2023-12-20T03:46:03;15.68;;;7.88;;
35795;SDS011;21916;52.428;13.302;2023-12-20T03:48:29;13.55;;;7.90;;
35795;SDS011;21916;52.428;13.302;2023-12-20T03:50:56;11.68;;;5.70;;
35795;SDS011;21916;52.428;13.302;2023-12-20T03:53:22;10.32;;;6.13;;
35795;SDS011;21916;52.428;13.302;2023-12-20T03:55:48;12.98;;;6.32;;
35795;SDS011;21916;52.428;13.302;2023-12-20T03:58:13;10.15;;;5.38;;
35795;SDS011;21916;52.428;13.302;2023-12-20T04:00:39;18.48;;;6.22;;
35795;SDS011;21916;52.428;13.302;2023-12-20T04:03:04;13.15;;;5.65;;
35795;SDS011;21916;52.428;13.302;2023-12-20T04:05:30;11.20;;;6.18;;
35795;SDS011;21916;52.428;13.302;2023-12-20T04:07:56;11.32;;;5.85;;
35795;SDS011;21916;52.428;13.302;2023-12-20T04:10:21;8.85;;;3.95;;
35795;SDS011;21916;52.428;13.302;2023-12-20T04:12:47;8.65;;;4.05;;
35795;SDS011;21916;52.428;13.302;2023-12-20T04:15:13;12.30;;;5.38;;
35795;SDS011;21916;52.428;13.302;2023-12-20T04:17:38;9.27;;;4.65;;
35795;SDS011;21916;52.428;13.302;2023-12-20T04:20:04;10.30;;;4.90;;
35795;SDS011;21916;52.428;13.302;2023-12-20T04:22:30;11.07;;;5.22;;
35795;SDS011;21916;52.428;13.302;2023-12-20T04:24:56;9.63;;;4.00;;
35795;SDS011;21916;52.428;13.302;2023-12-20T04:27:22;12.10;;;4.72;;
35795;SDS011;21916;52.428;13.302;2023-12-20T04:29:47;7.68;;;3.67;;
35795;SDS011;21916;52.428;13.302;2023-12-20T04:32:13;10.32;;;4.30;;
35795;SDS011;21916;52.428;13.302;2023-12-20T04:34:39;12.25;;;4.72;;
35795;SDS011;21916;52.428;13.302;2023-12-20T04:37:04;9.07;;;4.18;;
35795;SDS011;21916;52.428;13.302;2023-12-20T04:39:30;8.05;;;4.18;;
35795;SDS011;21916;52.428;13.302;2023-12-20T04:41:56;10.55;;;3.33;;
35795;SDS011;21916;52.428;13.302;2023-12-20T04:44:21;9.82;;;4.30;;
35795;SDS011;21916;52.428;13.302;2023-12-20T04:46:47;9.25;;;3.90;;
35795;SDS011;21916;52.428;13.302;2023-12-20T04:49:12;8.85;;;2.63;;
35795;SDS011;21916;52.428;13.302;2023-12-20T04:51:39;10.38;;;2.65;;
35795;SDS011;21916;52.428;13.302;2023-12-20T04:54:06;5.72;;;2.05;;
35795;SDS011;21916;52.428;13.302;2023-12-20T04:56:31;3.92;;;1.73;;
35795;SDS011;21916;52.428;13.302;2023-12-20T04:58:57;3.67;;;1.33;;
35795;SDS011;21916;52.428;13.302;2023-12-20T05:01:23;7.85;;;2.25;;
35795;SDS011;21916;52.428;13.302;2023-12-20T05:03:48;7.78;;;1.85;;
35795;SDS011;21916;52.428;13.302;2023-12-20T05:06:14;6.75;;;1.60;;
35795;SDS011;21916;52.428;13.302;2023-12-20T05:08:40;10.32;;;1.52;;
35795;SDS011;21916;52.428;13.302;2023-12-20T05:11:05;7.63;;;2.05;;
35795;SDS011;21916;52.428;13.302;2023-12-20T05:13:31;9.23;;;1.80;;
35795;SDS011;21916;52.428;13.302;2023-12-20T05:15:57;6.22;;;1.30;;
35795;SDS011;21916;52.428;13.302;2023-12-20T05:18:23;4.80;;;1.10;;
35795;SDS011;21916;52.428;13.302;2023-12-20T05:20:49;7.05;;;1.65;;
35795;SDS011;21916;52.428;13.302;2023-12-20T05:23:16;6.93;;;1.35;;
35795;SDS011;21916;52.428;13.302;2023-12-20T05:25:42;10.88;;;1.27;;
35795;SDS011;21916;52.428;13.302;2023-12-20T05:28:08;5.90;;;2.20;;
35795;SDS011;21916;52.428;13.302;2023-12-20T05:30:34;4.93;;;1.73;;
35795;SDS011;21916;52.428;13.302;2023-12-20T05:32:59;6.72;;;1.33;;
35795;SDS011;21916;52.428;13.302;2023-12-20T05:35:25;5.00;;;1.40;;
35795;SDS011;21916;52.428;13.302;2023-12-20T05:37:50;8.57;;;1.70;;
35795;SDS011;21916;52.428;13.302;2023-12-20T05:40:16;7.97;;;1.40;;
35795;SDS011;21916;52.428;13.302;2023-12-20T05:42:42;6.90;;;1.38;;
35795;SDS011;21916;52.428;13.302;2023-12-20T05:45:08;10.70;;;1.60;;
35795;SDS011;21916;52.428;13.302;2023-12-20T05:47:34;6.82;;;1.05;;
35795;SDS011;21916;52.428;13.302;2023-12-20T05:50:00;2.63;;;1.20;;
35795;SDS011;21916;52.428;13.302;2023-12-20T05:52:25;10.45;;;1.50;;
35795;SDS011;21916;52.428;13.302;2023-12-20T05:54:51;11.77;;;2.97;;
35795;SDS011;21916;52.428;13.302;2023-12-20T05:57:17;5.50;;;1.17;;
35795;SDS011;21916;52.428;13.302;2023-12-20T05:59:43;6.13;;;1.73;;
35795;SDS011;21916;52.428;13.302;2023-12-20T06:02:08;4.90;;;1.42;;
35795;SDS011;21916;52.428;13.302;2023-12-20T06:04:34;9.27;;;1.88;;
35795;SDS011;21916;52.428;13.302;2023-12-20T06:07:00;9.52;;;1.67;;
35795;SDS011;21916;52.428;13.302;2023-12-20T06:09:28;11.52;;;1.73;;
35795;SDS011;21916;52.428;13.302;2023-12-20T06:11:54;9.32;;;1.90;;
35795;SDS011;21916;52.428;13.302;2023-12-20T06:14:20;14.02;;;1.55;;
35795;SDS011;21916;52.428;13.302;2023-12-20T06:16:46;5.28;;;1.85;;
35795;SDS011;21916;52.428;13.302;2023-12-20T06:19:12;4.75;;;1.27;;
35795;SDS011;21916;52.428;13.302;2023-12-20T06:21:38;4.65;;;1.40;;
35795;SDS011;21916;52.428;13.302;2023-12-20T06:24:03;6.53;;;1.60;;
35795;SDS011;21916;52.428;13.302;2023-12-20T06:26:29;5.97;;;1.45;;
35795;SDS011;21916;52.428;13.302;2023-12-20T06:28:55;10.52;;;2.17;;
35795;SDS011;21916;52.428;13.302;2023-12-20T06:31:21;2.05;;;1.15;;
35795;SDS011;21916;52.428;13.302;2023-12-20T06:33:47;11.07;;;1.70;;
35795;SDS011;21916;52.428;13.302;2023-12-20T06:36:14;5.20;;;1.85;;
35795;SDS011;21916;52.428;13.302;2023-12-20T06:38:40;9.07;;;2.13;;
35795;SDS011;21916;52.428;13.302;2023-12-20T06:41:07;7.28;;;1.77;;
35795;SDS011;21916;52.428;13.302;2023-12-20T06:43:33;5.55;;;1.92;;
35795;SDS011;21916;52.428;13.302;2023-12-20T06:46:00;5.22;;;1.35;;
35795;SDS011;21916;52.428;13.302;2023-12-20T06:48:26;8.75;;;2.30;;
35795;SDS011;21916;52.428;13.302;2023-12-20T06:50:51;7.13;;;1.67;;
35795;SDS011;21916;52.428;13.302;2023-12-20T06:53:17;2.40;;;1.45;;
35795;SDS011;21916;52.428;13.302;2023-12-20T06:55:43;13.52;;;1.92;;
35795;SDS011;21916;52.428;13.302;2023-12-20T06:58:09;9.50;;;1.60;;
35795;SDS011;21916;52.428;13.302;2023-12-20T07:00:34;5.55;;;2.35;;
35795;SDS011;21916;52.428;13.302;2023-12-20T07:03:00;6.45;;;1.70;;
35795;SDS011;21916;52.428;13.302;2023-12-20T07:05:26;16.20;;;2.47;;
35795;SDS011;21916;52.428;13.302;2023-12-20T07:07:51;2.65;;;1.42;;
35795;SDS011;21916;52.428;13.302;2023-12-20T07:10:17;9.75;;;2.40;;
35795;SDS011;21916;52.428;13.302;2023-12-20T07:12:43;5.47;;;1.63;;
35795;SDS011;21916;52.428;13.302;2023-12-20T07:15:09;3.97;;;1.50;;
35795;SDS011;21916;52.428;13.302;2023-12-20T07:17:35;9.35;;;1.73;;
35795;SDS011;21916;52.428;13.302;2023-12-20T07:20:00;11.10;;;2.50;;
35795;SDS011;21916;52.428;13.302;2023-12-20T07:22:30;8.07;;;1.65;;
35795;SDS011;21916;52.428;13.302;2023-12-20T07:24:59;3.75;;;1.58;;
35795;SDS011;21916;52.428;13.302;2023-12-20T07:27:25;5.05;;;1.05;;
35795;SDS011;21916;52.428;13.302;2023-12-20T07:29:51;6.22;;;1.92;;
35795;SDS011;21916;52.428;13.302;2023-12-20T07:32:17;10.65;;;1.73;;
35795;SDS011;21916;52.428;13.302;2023-12-20T07:34:42;5.63;;;1.42;;
35795;SDS011;21916;52.428;13.302;2023-12-20T07:37:08;10.25;;;1.80;;
35795;SDS011;21916;52.428;13.302;2023-12-20T07:39:35;7.70;;;1.52;;
35795;SDS011;21916;52.428;13.302;2023-12-20T07:42:01;12.15;;;1.75;;
35795;SDS011;21916;52.428;13.302;2023-12-20T07:44:27;10.65;;;1.60;;
35795;SDS011;21916;52.428;13.302;2023-12-20T07:46:52;12.40;;;1.55;;
35795;SDS011;21916;52.428;13.302;2023-12-20T07:49:18;7.78;;;1.63;;
35795;SDS011;21916;52.428;13.302;2023-12-20T07:51:44;7.82;;;1.25;;
35795;SDS011;21916;52.428;13.302;2023-12-20T07:54:10;13.07;;;2.00;;
35795;SDS011;21916;52.428;13.302;2023-12-20T07:56:36;16.80;;;1.60;;
35795;SDS011;21916;52.428;13.302;2023-12-20T07:59:01;9.25;;;1.58;;
35795;SDS011;21916;52.428;13.302;2023-12-20T08:01:30;17.88;;;1.95;;
35795;SDS011;21916;52.428;13.302;2023-12-20T08:03:55;4.70;;;1.10;;
35795;SDS011;21916;52.428;13.302;2023-12-20T08:06:22;10.57;;;1.65;;
35795;SDS011;21916;52.428;13.302;2023-12-20T08:08:48;4.35;;;1.23;;
35795;SDS011;21916;52.428;13.302;2023-12-20T08:11:13;11.00;;;2.35;;
35795;SDS011;21916;52.428;13.302;2023-12-20T08:13:39;12.55;;;1.55;;
35795;SDS011;21916;52.428;13.302;2023-12-20T08:16:05;8.50;;;1.83;;
35795;SDS011;21916;52.428;13.302;2023-12-20T08:18:30;4.70;;;1.38;;
35795;SDS011;21916;52.428;13.302;2023-12-20T08:20:56;4.68;;;1.40;;
35795;SDS011;21916;52.428;13.302;2023-12-20T08:23:22;9.88;;;1.30;;
35795;SDS011;21916;52.428;13.302;2023-12-20T08:25:47;7.53;;;1.50;;
35795;SDS011;21916;52.428;13.302;2023-12-20T08:28:14;12.88;;;1.60;;
35795;SDS011;21916;52.428;13.302;2023-12-20T08:30:39;6.00;;;1.33;;
35795;SDS011;21916;52.428;13.302;2023-12-20T08:33:06;5.22;;;1.38;;
35795;SDS011;21916;52.428;13.302;2023-12-20T08:35:36;7.20;;;1.70;;
35795;SDS011;21916;52.428;13.302;2023-12-20T08:38:02;7.47;;;2.05;;
35795;SDS011;21916;52.428;13.302;2023-12-20T08:40:29;5.10;;;1.20;;
35795;SDS011;21916;52.428;13.302;2023-12-20T08:42:54;10.07;;;1.70;;
35795;SDS011;21916;52.428;13.302;2023-12-20T08:45:20;9.23;;;1.45;;
35795;SDS011;21916;52.428;13.302;2023-12-20T08:47:46;8.27;;;2.05;;
35795;SDS011;21916;52.428;13.302;2023-12-20T08:50:12;8.32;;;1.73;;
35795;SDS011;21916;52.428;13.302;2023-12-20T08:52:37;9.48;;;1.42;;
35795;SDS011;21916;52.428;13.302;2023-12-20T08:55:03;10.07;;;2.03;;
35795;SDS011;21916;52.428;13.302;2023-12-20T08:57:29;10.52;;;1.75;;
35795;SDS011;21916;52.428;13.302;2023-12-20T08:59:57;6.32;;;1.50;;
35795;SDS011;21916;52.428;13.302;2023-12-20T09:02:22;10.38;;;1.73;;
35795;SDS011;21916;52.428;13.302;2023-12-20T09:04:48;8.90;;;1.15;;
35795;SDS011;21916;52.428;13.302;2023-12-20T09:07:23;6.50;;;1.83;;
35795;SDS011;21916;52.428;13.302;2023-12-20T09:09:50;12.27;;;1.75;;
35795;SDS011;21916;52.428;13.302;2023-12-20T09:12:17;10.25;;;2.15;;
35795;SDS011;21916;52.428;13.302;2023-12-20T09:14:44;3.92;;;1.30;;
35795;SDS011;21916;52.428;13.302;2023-12-20T09:17:14;14.10;;;2.00;;
35795;SDS011;21916;52.428;13.302;2023-12-20T09:19:41;5.40;;;1.60;;
35795;SDS011;21916;52.428;13.302;2023-12-20T09:22:09;11.38;;;1.73;;
35795;SDS011;21916;52.428;13.302;2023-12-20T09:24:35;5.53;;;1.48;;
35795;SDS011;21916;52.428;13.302;2023-12-20T09:27:01;9.48;;;2.00;;
35795;SDS011;21916;52.428;13.302;2023-12-20T09:29:27;7.32;;;1.33;;
35795;SDS011;21916;52.428;13.302;2023-12-20T09:31:54;10.10;;;1.60;;
35795;SDS011;21916;52.428;13.302;2023-12-20T09:34:19;3.78;;;1.02;;
35795;SDS011;21916;52.428;13.302;2023-12-20T09:36:46;11.20;;;1.60;;
35795;SDS011;21916;52.428;13.302;2023-12-20T09:39:16;2.45;;;1.10;;
35795;SDS011;21916;52.428;13.302;2023-12-20T09:42:03;5.10;;;1.50;;
35795;SDS011;21916;52.428;13.302;2023-12-20T09:44:30;11.10;;;1.48;;
35795;SDS011;21916;52.428;13.302;2023-12-20T09:46:56;6.15;;;1.75;;
35795;SDS011;21916;52.428;13.302;2023-12-20T09:49:22;5.03;;;1.67;;
35795;SDS011;21916;52.428;13.302;2023-12-20T09:51:52;4.40;;;1.15;;
35795;SDS011;21916;52.428;13.302;2023-12-20T09:54:19;9.13;;;1.15;;
35795;SDS011;21916;52.428;13.302;2023-12-20T09:56:45;8.73;;;1.67;;
35795;SDS011;21916;52.428;13.302;2023-12-20T09:59:12;9.80;;;1.63;;
35795;SDS011;21916;52.428;13.302;2023-12-20T10:01:38;8.02;;;1.73;;
35795;SDS011;21916;52.428;13.302;2023-12-20T10:04:05;9.55;;;1.65;;
35795;SDS011;21916;52.428;13.302;2023-12-20T10:06:39;6.78;;;1.35;;
35795;SDS011;21916;52.428;13.302;2023-12-20T10:09:05;2.75;;;1.20;;
35795;SDS011;21916;52.428;13.302;2023-12-20T10:11:31;9.93;;;2.08;;
35795;SDS011;21916;52.428;13.302;2023-12-20T10:14:00;6.28;;;1.35;;
35795;SDS011;21916;52.428;13.302;2023-12-20T10:16:26;11.40;;;1.85;;
35795;SDS011;21916;52.428;13.302;2023-12-20T10:18:53;10.48;;;1.65;;
35795;SDS011;21916;52.428;13.302;2023-12-20T10:21:19;8.50;;;1.00;;
35795;SDS011;21916;52.428;13.302;2023-12-20T10:23:45;7.03;;;1.73;;
35795;SDS011;21916;52.428;13.302;2023-12-20T10:26:18;7.30;;;1.40;;
35795;SDS011;21916;52.428;13.302;2023-12-20T10:28:46;9.95;;;1.38;;
35795;SDS011;21916;52.428;13.302;2023-12-20T10:31:28;13.32;;;2.05;;
35795;SDS011;21916;52.428;13.302;2023-12-20T10:33:56;2.60;;;1.13;;
35795;SDS011;21916;52.428;13.302;2023-12-20T10:36:23;3.08;;;1.40;;
35795;SDS011;21916;52.428;13.302;2023-12-20T10:38:52;6.82;;;1.83;;
35795;SDS011;21916;52.428;13.302;2023-12-20T10:41:19;8.70;;;2.47;;
35795;SDS011;21916;52.428;13.302;2023-12-20T10:43:51;11.13;;;2.10;;
35795;SDS011;21916;52.428;13.302;2023-12-20T10:46:18;8.00;;;1.25;;
35795;SDS011;21916;52.428;13.302;2023-12-20T10:48:44;6.45;;;1.10;;
35795;SDS011;21916;52.428;13.302;2023-12-20T10:51:11;10.57;;;1.20;;
35795;SDS011;21916;52.428;13.302;2023-12-20T10:53:42;13.98;;;1.50;;
35795;SDS011;21916;52.428;13.302;2023-12-20T10:56:09;10.48;;;2.00;;
35795;SDS011;21916;52.428;13.302;2023-12-20T10:58:37;5.38;;;1.63;;
35795;SDS011;21916;52.428;13.302;2023-12-20T11:01:06;11.05;;;1.65;;
35795;SDS011;21916;52.428;13.302;2023-12-20T11:03:34;4.80;;;1.20;;
35795;SDS011;21916;52.428;13.302;2023-12-20T11:06:07;7.63;;;2.03;;
35795;SDS011;21916;52.428;13.302;2023-12-20T11:08:45;4.50;;;1.73;;
35795;SDS011;21916;52.428;13.302;2023-12-20T11:11:21;7.22;;;1.73;;
35795;SDS011;21916;52.428;13.302;2023-12-20T11:13:57;5.72;;;1.38;;
35795;SDS011;21916;52.428;13.302;2023-12-20T11:16:27;4.25;;;1.58;;
35795;SDS011;21916;52.428;13.302;2023-12-20T11:18:52;5.15;;;1.42;;
35795;SDS011;21916;52.428;13.302;2023-12-20T11:21:18;3.88;;;1.48;;
35795;SDS011;21916;52.428;13.302;2023-12-20T11:23:44;10.18;;;1.67;;
35795;SDS011;21916;52.428;13.302;2023-12-20T11:26:10;5.85;;;1.27;;
35795;SDS011;21916;52.428;13.302;2023-12-20T11:28:36;10.60;;;1.65;;
35795;SDS011;21916;52.428;13.302;2023-12-20T11:31:02;6.35;;;1.23;;
35795;SDS011;21916;52.428;13.302;2023-12-20T11:33:32;11.82;;;2.30;;
35795;SDS011;21916;52.428;13.302;2023-12-20T11:36:01;6.97;;;1.77;;
35795;SDS011;21916;52.428;13.302;2023-12-20T11:38:35;7.47;;;1.90;;
35795;SDS011;21916;52.428;13.302;2023-12-20T11:41:02;3.60;;;1.08;;
35795;SDS011;21916;52.428;13.302;2023-12-20T11:43:32;10.02;;;1.98;;
35795;SDS011;21916;52.428;13.302;2023-12-20T11:46:07;3.28;;;1.10;;
35795;SDS011;21916;52.428;13.302;2023-12-20T11:51:01;6.55;;;1.35;;
35795;SDS011;21916;52.428;13.302;2023-12-20T11:53:29;7.18;;;1.67;;
35795;SDS011;21916;52.428;13.302;2023-12-20T11:55:56;9.02;;;1.60;;
35795;SDS011;21916;52.428;13.302;2023-12-20T11:58:22;9.05;;;2.20;;
35795;SDS011;21916;52.428;13.302;2023-12-20T12:00:49;11.13;;;1.50;;
35795;SDS011;21916;52.428;13.302;2023-12-20T12:03:15;6.85;;;1.45;;
35795;SDS011;21916;52.428;13.302;2023-12-20T12:05:41;7.82;;;1.48;;
35795;SDS011;21916;52.428;13.302;2023-12-20T12:08:06;10.32;;;1.98;;
35795;SDS011;21916;52.428;13.302;2023-12-20T12:10:33;5.53;;;1.63;;
35795;SDS011;21916;52.428;13.302;2023-12-20T12:12:59;6.18;;;1.58;;
35795;SDS011;21916;52.428;13.302;2023-12-20T12:15:25;5.57;;;1.60;;
35795;SDS011;21916;52.428;13.302;2023-12-20T12:17:55;9.70;;;1.63;;
35795;SDS011;21916;52.428;13.302;2023-12-20T12:20:21;5.05;;;1.50;;
35795;SDS011;21916;52.428;13.302;2023-12-20T12:23:22;2.28;;;1.13;;
35795;SDS011;21916;52.428;13.302;2023-12-20T12:25:47;6.57;;;1.05;;
35795;SDS011;21916;52.428;13.302;2023-12-20T12:28:13;8.50;;;1.20;;
35795;SDS011;21916;52.428;13.302;2023-12-20T12:30:39;7.50;;;1.50;;
35795;SDS011;21916;52.428;13.302;2023-12-20T12:33:05;4.78;;;1.27;;
35795;SDS011;21916;52.428;13.302;2023-12-20T12:35:30;6.32;;;1.60;;
35795;SDS011;21916;52.428;13.302;2023-12-20T12:37:58;6.60;;;1.33;;
35795;SDS011;21916;52.428;13.302;2023-12-20T12:40:24;10.95;;;1.60;;
35795;SDS011;21916;52.428;13.302;2023-12-20T12:42:50;8.23;;;1.77;;
35795;SDS011;21916;52.428;13.302;2023-12-20T12:45:16;2.05;;;1.20;;
35795;SDS011;21916;52.428;13.302;2023-12-20T12:47:42;7.30;;;1.83;;
35795;SDS011;21916;52.428;13.302;2023-12-20T12:50:08;7.55;;;1.67;;
35795;SDS011;21916;52.428;13.302;2023-12-20T12:52:33;4.63;;;1.65;;
35795;SDS011;21916;52.428;13.302;2023-12-20T12:55:00;6.13;;;2.15;;
35795;SDS011;21916;52.428;13.302;2023-12-20T12:57:26;5.22;;;1.75;;
35795;SDS011;21916;52.428;13.302;2023-12-20T12:59:51;5.35;;;2.22;;
35795;SDS011;21916;52.428;13.302;2023-12-20T13:02:17;6.82;;;1.60;;
35795;SDS011;21916;52.428;13.302;2023-12-20T13:04:43;5.00;;;1.65;;
35795;SDS011;21916;52.428;13.302;2023-12-20T13:07:09;5.90;;;1.67;;
35795;SDS011;21916;52.428;13.302;2023-12-20T13:09:38;6.97;;;1.80;;
35795;SDS011;21916;52.428;13.302;2023-12-20T13:12:05;6.68;;;1.75;;
35795;SDS011;21916;52.428;13.302;2023-12-20T13:14:32;5.10;;;2.00;;
35795;SDS011;21916;52.428;13.302;2023-12-20T13:16:59;10.68;;;3.25;;
35795;SDS011;21916;52.428;13.302;2023-12-20T13:19:25;6.40;;;2.17;;
35795;SDS011;21916;52.428;13.302;2023-12-20T13:21:51;8.10;;;1.85;;
35795;SDS011;21916;52.428;13.302;2023-12-20T13:24:17;5.43;;;2.15;;
35795;SDS011;21916;52.428;13.302;2023-12-20T13:26:43;6.32;;;1.60;;
35795;SDS011;21916;52.428;13.302;2023-12-20T13:29:09;4.60;;;1.90;;
35795;SDS011;21916;52.428;13.302;2023-12-20T13:31:35;4.30;;;1.65;;
35795;SDS011;21916;52.428;13.302;2023-12-20T13:34:01;2.97;;;1.48;;
35795;SDS011;21916;52.428;13.302;2023-12-20T13:36:27;3.05;;;1.52;;
35795;SDS011;21916;52.428;13.302;2023-12-20T13:38:53;4.50;;;1.25;;
35795;SDS011;21916;52.428;13.302;2023-12-20T13:41:19;2.08;;;1.10;;
35795;SDS011;21916;52.428;13.302;2023-12-20T13:43:45;5.00;;;1.23;;
35795;SDS011;21916;52.428;13.302;2023-12-20T13:46:10;2.17;;;1.20;;
35795;SDS011;21916;52.428;13.302;2023-12-20T13:48:36;2.45;;;0.80;;
35795;SDS011;21916;52.428;13.302;2023-12-20T13:51:02;2.05;;;0.80;;
35795;SDS011;21916;52.428;13.302;2023-12-20T13:53:28;1.38;;;0.50;;
35795;SDS011;21916;52.428;13.302;2023-12-20T13:55:53;1.48;;;0.43;;
35795;SDS011;21916;52.428;13.302;2023-12-20T13:58:19;1.13;;;0.95;;
35795;SDS011;21916;52.428;13.302;2023-12-20T14:00:45;0.57;;;0.40;;
35795;SDS011;21916;52.428;13.302;2023-12-20T14:03:11;3.95;;;0.60;;
35795;SDS011;21916;52.428;13.302;2023-12-20T14:05:36;0.63;;;0.22;;
35795;SDS011;21916;52.428;13.302;2023-12-20T14:08:02;0.45;;;0.38;;
35795;SDS011;21916;52.428;13.302;2023-12-20T14:10:28;0.38;;;0.38;;
35795;SDS011;21916;52.428;13.302;2023-12-20T14:12:55;2.67;;;0.40;;
35795;SDS011;21916;52.428;13.302;2023-12-20T14:15:20;0.30;;;0.30;;
35795;SDS011;21916;52.428;13.302;2023-12-20T14:17:46;0.60;;;0.47;;
35795;SDS011;21916;52.428;13.302;2023-12-20T14:20:12;2.45;;;0.70;;
35795;SDS011;21916;52.428;13.302;2023-12-20T14:22:38;1.13;;;0.50;;
35795;SDS011;21916;52.428;13.302;2023-12-20T14:25:08;1.45;;;0.47;;
35795;SDS011;21916;52.428;13.302;2023-12-20T14:27:33;9.40;;;0.60;;
35795;SDS011;21916;52.428;13.302;2023-12-20T14:29:59;0.60;;;0.40;;
35795;SDS011;21916;52.428;13.302;2023-12-20T14:32:25;1.08;;;0.40;;